Time;durP1;ratioP1;P1;durP2;ratioP2;P2;SDS_P1;SDS_P2;PMS_P1;PMS_P2;Temp;Humidity;BMP_temperature;BMP_pressure;BME280_temperature;BME280_humidity;BME280_pressure;Samples;Min_cycle;Max_cycle;Signal;HPM_P1;HPM_P2
2023/10/08 00:00:39;;;;;;;3.40;2.50;;;;;;;7.09;67.20;95292.34;6294201;28;20056;-67
2023/10/08 00:03:29;;;;;;;2.97;2.33;;;;;;;6.75;68.58;95294.06;6294176;28;20849;-67
2023/10/08 00:06:33;;;;;;;2.53;2.05;;;;;;;6.73;68.75;95280.28;6293605;28;20049;-67
2023/10/08 00:09:38;;;;;;;3.42;2.38;;;;;;;6.58;69.32;95266.59;6295216;28;20047;-67
2023/10/08 00:12:41;;;;;;;1.67;1.58;;;;;;;6.52;69.40;95272.28;6293973;28;20052;-67
2023/10/08 00:15:52;;;;;;;;;;;;;;;6.55;69.32;95272.03;6277211;28;20439;-66
2023/10/08 00:18:59;;;;;;;2.28;2.05;;;;;;;6.30;69.85;95262.56;6294511;28;19938;-66
2023/10/08 00:22:06;;;;;;;2.80;2.03;;;;;;;6.43;69.62;95265.13;6294698;28;20041;-67
2023/10/08 00:25:11;;;;;;;2.83;2.22;;;;;;;6.42;69.52;95272.09;6293954;28;20052;-67
2023/10/08 00:28:13;;;;;;;3.38;2.28;;;;;;;6.23;69.96;95261.38;6293941;28;20056;-67
2023/10/08 00:31:17;;;;;;;2.78;2.10;;;;;;;6.21;70.46;95263.25;6293618;28;20048;-67
2023/10/08 00:34:21;;;;;;;2.67;2.40;;;;;;;6.07;70.91;95246.81;6294595;28;20042;-67
2023/10/08 00:37:26;;;;;;;3.33;2.15;;;;;;;6.11;71.26;95252.63;6277003;28;20415;-67
2023/10/08 00:40:39;;;;;;;3.83;2.67;;;;;;;6.03;71.46;95260.22;6293515;28;20439;-67
2023/10/08 00:43:45;;;;;;;3.85;2.40;;;;;;;6.05;70.93;95263.53;6293635;28;20044;-67
2023/10/08 00:46:49;;;;;;;3.00;2.28;;;;;;;5.88;71.35;95245.59;6259600;28;20454;-67
2023/10/08 00:50:20;;;;;;;2.75;2.25;;;;;;;5.91;71.12;95248.00;6293639;28;20094;-67
2023/10/08 00:53:21;;;;;;;3.17;2.88;;;;;;;5.85;71.00;95267.53;6293501;28;20060;-67
2023/10/08 00:59:55;;;;;;;6.55;2.63;;;;;;;5.68;71.44;95265.31;6293445;28;20535;-67
2023/10/08 01:03:01;;;;;;;2.45;2.22;;;;;;;5.71;71.66;95275.53;6293489;28;20435;-67
2023/10/08 01:06:04;;;;;;;3.00;2.47;;;;;;;5.72;71.68;95283.25;6292578;28;20057;-66
2023/10/08 01:09:18;;;;;;;2.83;2.42;;;;;;;5.73;71.34;95279.69;6293631;28;20055;-67
2023/10/08 01:15:30;;;;;;;4.45;2.63;;;;;;;5.47;72.38;95270.28;6293819;28;20045;-67
2023/10/08 01:18:42;;;;;;;3.30;2.80;;;;;;;5.32;72.82;95273.03;6293991;28;20052;-66
2023/10/08 01:21:47;;;;;;;4.38;2.75;;;;;;;5.55;72.08;95281.00;6292994;28;20048;-67
2023/10/08 01:24:51;;;;;;;3.40;2.72;;;;;;;5.62;71.61;95277.00;6293827;28;20055;-67
2023/10/08 01:28:08;;;;;;;3.50;2.88;;;;;;;5.57;71.75;95276.50;6293321;28;20037;-67
2023/10/08 01:31:12;;;;;;;4.75;2.92;;;;;;;5.57;71.94;95273.88;6292616;28;20052;-66
2023/10/08 01:34:17;;;;;;;4.18;2.42;;;;;;;5.48;71.83;95275.38;6293318;28;20052;-67
2023/10/08 01:37:23;;;;;;;3.90;2.70;;;;;;;5.46;72.01;95269.41;6292605;28;20079;-67
2023/10/08 01:40:29;;;;;;;4.18;3.38;;;;;;;5.52;71.69;95270.75;6293004;28;20048;-67
2023/10/08 01:43:38;;;;;;;3.47;2.90;;;;;;;5.61;71.85;95264.91;6293537;28;20419;-67
2023/10/08 01:46:42;;;;;;;6.28;3.38;;;;;;;5.56;71.88;95253.97;6292768;28;20049;-67
2023/10/08 01:49:49;;;;;;;2.53;2.05;;;;;;;5.87;71.32;95275.28;6293518;28;20044;-67
2023/10/08 01:52:56;;;;;;;2.95;2.65;;;;;;;5.98;71.08;95262.31;6256028;28;20464;-67
2023/10/08 01:55:58;;;;;;;6.28;4.10;;;;;;;5.96;71.53;95238.09;6268241;28;20540;-66
2023/10/08 01:59:00;;;;;;;3.58;3.05;;;;;;;6.18;71.34;95250.41;6268034;28;20106;-67
2023/10/08 02:02:05;;;;;;;4.38;3.60;;;;;;;6.22;71.62;95259.69;6268366;28;20041;-69
2023/10/08 02:05:14;;;;;;;4.03;3.22;;;;;;;6.13;71.92;95240.28;6268522;28;20045;-68
2023/10/08 02:08:16;;;;;;;2.97;2.75;;;;;;;6.10;72.63;95245.75;6267568;28;20431;-66
2023/10/08 02:11:21;;;;;;;4.10;3.17;;;;;;;5.96;73.25;95235.47;6268375;28;20040;-66
2023/10/08 02:14:31;;;;;;;4.82;3.92;;;;;;;6.05;73.48;95242.63;6267998;28;20134;-67
2023/10/08 02:17:36;;;;;;;5.13;3.63;;;;;;;5.98;74.02;95226.59;6269452;28;20041;-67
2023/10/08 02:20:41;;;;;;;5.18;4.32;;;;;;;5.99;73.79;95224.81;6273012;28;20036;-67
2023/10/08 02:23:45;;;;;;;6.30;3.85;;;;;;;5.93;74.23;95233.06;6271961;28;20550;-67
2023/10/08 02:26:46;;;;;;;5.05;4.20;;;;;;;5.97;74.47;95237.13;6272015;28;20455;-66
2023/10/08 02:29:47;;;;;;;5.70;3.13;;;;;;;6.02;74.21;95228.03;6272598;28;20041;-67
2023/10/08 02:33:01;;;;;;;4.22;3.38;;;;;;;6.10;74.22;95230.06;6272584;28;20041;-67
2023/10/08 02:36:10;;;;;;;3.92;3.15;;;;;;;6.21;74.13;95222.28;6255394;28;20045;-67
2023/10/08 02:39:25;;;;;;;4.90;3.83;;;;;;;6.12;74.32;95212.53;6254771;28;20064;-68
2023/10/08 02:42:29;;;;;;;5.18;4.20;;;;;;;6.17;74.48;95220.88;6272644;28;20041;-67
2023/10/08 02:45:38;;;;;;;6.18;4.53;;;;;;;6.22;74.26;95223.94;6254821;28;20072;-67
2023/10/08 02:48:42;;;;;;;4.18;3.20;;;;;;;6.33;74.38;95217.09;6271257;28;20135;-67
2023/10/08 02:51:44;;;;;;;5.50;4.70;;;;;;;6.41;74.32;95223.41;6281628;28;20060;-67
2023/10/08 02:54:46;;;;;;;6.95;4.72;;;;;;;6.46;74.30;95215.25;6296143;28;20049;-67
2023/10/08 02:57:50;;;;;;;6.57;4.80;;;;;;;6.65;73.57;95215.53;6296035;28;20440;-67
2023/10/08 03:00:57;;;;;;;6.07;4.60;;;;;;;6.65;73.71;95228.59;6296705;28;20040;-67
2023/10/08 03:04:09;;;;;;;6.40;4.43;;;;;;;6.77;73.73;95223.41;6295777;28;20067;-67
2023/10/08 03:07:21;;;;;;;6.65;4.80;;;;;;;6.78;73.56;95211.97;6295804;28;20052;-67
2023/10/08 03:10:33;;;;;;;7.93;5.88;;;;;;;6.72;74.38;95194.97;6296558;28;20049;-67
2023/10/08 03:13:38;;;;;;;7.80;5.22;;;;;;;6.82;74.14;95198.56;6279203;28;20052;-66
2023/10/08 03:16:40;;;;;;;5.07;3.72;;;;;;;6.72;74.89;95195.81;6295349;28;20456;-67
2023/10/08 03:19:46;;;;;;;8.25;6.15;;;;;;;6.80;74.76;95186.56;6296365;28;20033;-66
2023/10/08 03:22:53;;;;;;;7.35;5.75;;;;;;;6.74;75.55;95195.69;6295518;28;20073;-67
2023/10/08 03:26:00;;;;;;;6.63;5.22;;;;;;;6.79;75.54;95195.31;6295176;28;20040;-67
2023/10/08 03:29:09;;;;;;;4.88;4.05;;;;;;;7.05;75.29;95188.94;6294586;28;20056;-66
2023/10/08 03:32:18;;;;;;;6.18;5.32;;;;;;;7.00;75.14;95198.91;6295278;28;20495;-67
2023/10/08 03:35:27;;;;;;;6.47;4.43;;;;;;;7.01;75.17;95189.28;6295115;28;20059;-66
2023/10/08 03:38:44;;;;;;;10.68;6.05;;;;;;;6.92;75.71;95175.16;6295245;28;20048;-67
2023/10/08 03:41:59;;;;;;;6.60;5.50;;;;;;;6.89;76.17;95180.63;6294975;28;20136;-66
2023/10/08 03:45:10;;;;;;;8.60;6.68;;;;;;;7.02;75.90;95170.88;6294670;28;20052;-66
2023/10/08 03:48:15;;;;;;;7.28;5.78;;;;;;;6.99;75.54;95165.84;6295051;28;20048;-67
2023/10/08 03:51:19;;;;;;;7.40;6.65;;;;;;;6.94;76.16;95168.03;6294216;28;20052;-67
2023/10/08 03:54:29;;;;;;;5.07;4.57;;;;;;;7.15;75.86;95166.31;6294921;28;20091;-67
2023/10/08 03:57:48;;;;;;;7.35;6.05;;;;;;;7.13;75.98;95157.78;6294432;28;20110;-66
2023/10/08 04:01:06;;;;;;;7.57;5.65;;;;;;;7.15;76.17;95166.31;6294185;28;20511;-67
2023/10/08 04:04:14;;;;;;;5.25;4.75;;;;;;;7.44;75.13;95168.41;6294675;28;20058;-67
2023/10/08 04:07:28;;;;;;;5.70;4.85;;;;;;;7.52;73.85;95158.19;6277414;28;20507;-68
2023/10/08 04:13:48;;;;;;;2.60;2.40;;;;;;;7.77;69.44;95153.59;6294639;28;20048;-67
2023/10/08 04:16:55;;;;;;;2.90;2.35;;;;;;;7.68;68.10;95156.97;6294699;28;20507;-68
2023/10/08 04:19:58;;;;;;;1.65;1.42;;;;;;;7.78;65.74;95150.84;6276146;28;20053;-68
2023/10/08 04:23:01;;;;;;;3.70;2.50;;;;;;;7.63;64.71;95150.28;6276420;28;20638;-67
2023/10/08 04:26:06;;;;;;;2.38;2.03;;;;;;;7.64;64.51;95131.03;6294190;28;20052;-68
2023/10/08 04:29:16;;;;;;;1.85;1.60;;;;;;;7.63;64.45;95144.22;6293659;28;20040;-67
2023/10/08 04:32:24;;;;;;;1.25;1.10;;;;;;;7.56;65.04;95150.94;6293356;28;20054;-67
2023/10/08 04:35:31;;;;;;;1.95;1.35;;;;;;;7.30;65.99;95153.00;6294591;28;20044;-66
2023/10/08 04:38:40;;;;;;;2.22;1.33;;;;;;;7.04;67.31;95134.94;6294244;28;20037;-67
2023/10/08 04:41:45;;;;;;;2.22;1.20;;;;;;;6.88;68.66;95147.56;6292819;28;20052;-67
2023/10/08 04:44:49;;;;;;;1.88;1.17;;;;;;;6.75;69.55;95143.28;6293801;28;20048;-68
2023/10/08 04:47:53;;;;;;;3.45;1.30;;;;;;;6.64;69.12;95140.66;6293266;28;20056;-68
2023/10/08 04:50:58;;;;;;;2.22;1.10;;;;;;;6.57;69.77;95139.50;6293557;28;20049;-67
2023/10/08 04:54:05;;;;;;;1.42;1.20;;;;;;;6.34;70.91;95153.44;6294270;28;20499;-69
2023/10/08 04:57:14;;;;;;;1.58;1.48;;;;;;;6.18;70.95;95144.16;6293261;28;20507;-67
2023/10/08 05:00:26;;;;;;;3.63;1.38;;;;;;;6.15;71.49;95165.28;6292903;28;20055;-68
2023/10/08 05:03:43;;;;;;;1.20;0.70;;;;;;;6.13;72.07;95167.19;6293080;28;20053;-69
2023/10/08 05:06:50;;;;;;;1.88;0.93;;;;;;;5.94;72.46;95170.31;6293770;28;20040;-68
2023/10/08 05:16:35;;;;;;;1.30;1.20;;;;;;;5.38;75.35;95177.84;6294058;28;20045;-67
2023/10/08 05:19:50;;;;;;;2.67;0.90;;;;;;;5.19;75.60;95160.06;6292728;28;20052;-67
2023/10/08 05:23:05;;;;;;;1.90;1.10;;;;;;;4.92;76.68;95166.25;6294204;28;20692;-66
2023/10/08 05:29:51;;;;;;;1.08;0.90;;;;;;;4.95;77.40;95173.91;6292852;28;20114;-67
2023/10/08 05:33:59;;;;;;;2.20;0.60;;;;;;;4.95;78.02;95155.66;6292442;28;20048;-67
2023/10/08 05:37:31;;;;;;;;;;;;;;;5.14;78.33;95167.38;6245494;28;20057;-67
2023/10/08 05:39:55;;;;;;;0.85;0.80;;;;;;;5.11;79.30;95170.22;6275382;28;19921;-67
2023/10/08 05:43:13;;;;;;;2.35;0.73;;;;;;;5.12;78.99;95167.50;6292464;28;20106;-69
2023/10/08 05:46:39;;;;;;;1.77;1.05;;;;;;;5.12;78.75;95164.03;6293692;28;20044;-67
2023/10/08 05:49:52;;;;;;;1.40;0.70;;;;;;;5.27;77.62;95164.75;6292190;28;20063;-68
2023/10/08 05:56:27;;;;;;;0.50;0.50;;;;;;;5.43;74.73;95159.25;6279156;28;20064;-69
2023/10/08 05:59:38;;;;;;;1.08;0.65;;;;;;;5.53;72.54;95152.44;6297113;28;20060;-69
2023/10/08 06:06:07;;;;;;;2.05;1.02;;;;;;;5.98;71.28;95155.28;6297391;28;20052;-69
2023/10/08 06:12:19;;;;;;;1.52;1.10;;;;;;;6.27;67.60;95151.31;6297615;28;20496;-69
2023/10/08 06:15:37;;;;;;;0.65;0.50;;;;;;;6.40;65.62;95153.00;6297475;28;20419;-67
2023/10/08 06:18:41;;;;;;;0.73;0.70;;;;;;;6.53;64.17;95153.72;6296876;28;20048;-67
2023/10/08 06:21:45;;;;;;;1.02;0.88;;;;;;;6.32;65.41;95144.91;6296774;28;20056;-68
2023/10/08 06:25:15;;;;;;;1.48;0.90;;;;;;;6.39;65.27;95130.44;6297030;28;20059;-68
2023/10/08 06:28:19;;;;;;;1.20;1.10;;;;;;;6.51;65.56;95142.56;6297041;28;20040;-67
2023/10/08 06:31:24;;;;;;;1.20;0.70;;;;;;;6.62;64.21;95147.78;6297404;28;20048;-68
2023/10/08 06:34:29;;;;;;;1.10;1.00;;;;;;;6.42;65.46;95151.91;6296455;28;20071;-67
2023/10/08 06:37:35;;;;;;;3.13;0.93;;;;;;;6.56;64.25;95163.13;6297156;28;20048;-67
2023/10/08 06:43:49;;;;;;;0.85;0.65;;;;;;;6.55;63.67;95151.84;6296767;28;20431;-68
2023/10/08 06:46:58;;;;;;;0.75;0.75;;;;;;;6.55;62.83;95164.91;6297143;28;20044;-68
2023/10/08 06:50:04;;;;;;;0.93;0.80;;;;;;;6.56;63.00;95143.03;6297184;28;20037;-67
2023/10/08 06:53:09;;;;;;;1.48;1.00;;;;;;;6.60;63.06;95141.88;6296746;28;20645;-68
2023/10/08 06:56:18;;;;;;;4.85;1.88;;;;;;;6.80;61.90;95140.31;6297019;28;20048;-68
2023/10/08 06:59:23;;;;;;;1.52;1.13;;;;;;;6.73;63.01;95129.50;6295769;28;20058;-66
2023/10/08 07:02:26;;;;;;;1.75;0.90;;;;;;;6.84;62.05;95135.69;6296024;28;20059;-68
2023/10/08 07:05:36;;;;;;;0.98;0.98;;;;;;;6.85;61.21;95126.88;6277546;28;20125;-68
2023/10/08 07:08:42;;;;;;;6.43;0.70;;;;;;;6.90;61.47;95119.50;6295375;28;20044;-68
2023/10/08 07:11:49;;;;;;;2.05;0.80;;;;;;;6.73;61.83;95108.59;6295453;28;20060;-66
2023/10/08 07:14:58;;;;;;;0.60;0.50;;;;;;;6.74;62.28;95112.88;6295358;28;20044;-68
2023/10/08 07:18:09;;;;;;;0.80;0.70;;;;;;;6.68;63.13;95105.53;6295580;28;20052;-67
2023/10/08 07:21:12;;;;;;;1.58;1.20;;;;;;;6.78;63.30;95099.56;6296352;28;20044;-67
2023/10/08 07:24:16;;;;;;;0.63;0.60;;;;;;;6.90;62.88;95101.22;6295101;28;20051;-67
2023/10/08 07:27:29;;;;;;;;;;;;;;;7.12;61.88;95076.81;6296341;28;20044;-66
2023/10/08 07:30:32;;;;;;;1.55;0.60;;;;;;;6.90;62.36;95064.63;6296062;28;19927;-68
2023/10/08 07:33:36;;;;;;;0.50;0.50;;;;;;;7.03;62.36;95093.25;6295746;28;20049;-68
2023/10/08 07:36:40;;;;;;;0.30;0.30;;;;;;;6.93;61.64;95077.44;6294755;28;20094;-69
2023/10/08 07:39:46;;;;;;;2.33;0.40;;;;;;;6.78;61.85;95062.97;6295169;28;20079;-68
2023/10/08 07:42:51;;;;;;;0.50;0.50;;;;;;;6.81;61.70;95067.97;6295075;28;20171;-67
2023/10/08 07:45:54;;;;;;;0.50;0.50;;;;;;;6.94;61.87;95058.19;6294664;28;20435;-68
2023/10/08 07:48:58;;;;;;;1.45;0.55;;;;;;;7.07;62.00;95047.59;6295482;28;20044;-68
2023/10/08 07:52:06;;;;;;;0.68;0.60;;;;;;;7.27;60.57;95051.22;6265098;28;20053;-66
2023/10/08 07:55:08;;;;;;;0.95;0.65;;;;;;;7.10;61.71;95056.00;6269466;28;20080;-69
2023/10/08 07:58:11;;;;;;;0.77;0.68;;;;;;;7.01;61.56;95053.31;6269510;28;20047;-67
2023/10/08 08:01:20;;;;;;;0.65;0.65;;;;;;;7.06;61.99;95031.06;6270293;28;20048;-67
2023/10/08 08:04:24;;;;;;;1.25;0.40;;;;;;;7.11;61.58;95044.59;6270112;28;20507;-67
2023/10/08 08:07:25;;;;;;;0.20;0.20;;;;;;;7.05;61.92;95052.94;6269274;28;20044;-67
2023/10/08 08:10:26;;;;;;;0.60;0.32;;;;;;;7.02;61.79;95050.59;6268989;28;20504;-68
2023/10/08 08:13:28;;;;;;;0.65;0.50;;;;;;;6.88;62.94;95016.84;6269456;28;20094;-67
2023/10/08 08:16:29;;;;;;;1.10;0.73;;;;;;;6.89;63.38;95036.81;6269673;28;20060;-68
2023/10/08 08:19:31;;;;;;;2.55;0.90;;;;;;;6.97;63.11;95024.78;6269118;28;20052;-66
2023/10/08 08:22:32;;;;;;;1.70;0.77;;;;;;;6.97;63.45;95001.25;6268981;28;20122;-67
2023/10/08 08:29:01;;;;;;;0.80;0.70;;;;;;;7.55;62.49;94995.66;6268685;28;20571;-67
2023/10/08 08:32:05;;;;;;;1.30;0.60;;;;;;;7.56;61.70;94986.88;6269577;28;20492;-68
2023/10/08 08:35:08;;;;;;;0.88;0.50;;;;;;;7.43;61.90;95002.75;6268877;28;20044;-68
2023/10/08 08:38:12;;;;;;;0.80;0.50;;;;;;;7.49;62.31;95021.50;6268480;28;20048;-68
2023/10/08 08:41:17;;;;;;;1.27;0.55;;;;;;;7.48;62.08;94968.34;6268748;28;20076;-69
2023/10/08 08:44:29;;;;;;;1.48;0.65;;;;;;;7.50;62.87;94981.28;6269491;28;20037;-68
2023/10/08 08:47:31;;;;;;;0.70;0.60;;;;;;;7.40;63.32;94999.56;6251204;28;20044;-66
2023/10/08 08:50:38;;;;;;;1.42;0.55;;;;;;;7.07;64.28;94969.94;6269760;28;20037;-68
2023/10/08 08:53:42;;;;;;;0.95;0.40;;;;;;;7.06;64.76;94952.63;6293911;28;20480;-68
2023/10/08 08:56:49;;;;;;;0.77;0.50;;;;;;;7.13;64.92;94948.56;6276416;28;20094;-68
2023/10/08 08:59:54;;;;;;;1.38;0.55;;;;;;;7.41;64.26;94978.47;6292960;28;20075;-67
2023/10/08 09:02:58;;;;;;;1.70;0.73;;;;;;;7.34;64.27;94961.63;6293882;28;20040;-68
2023/10/08 09:06:00;;;;;;;1.05;0.70;;;;;;;7.12;65.15;94974.81;6293627;28;20523;-68
2023/10/08 09:09:22;;;;;;;0.68;0.50;;;;;;;7.02;65.02;94925.06;6294178;28;20045;-67
2023/10/08 09:12:23;;;;;;;1.52;1.30;;;;;;;6.95;65.41;94955.28;6292833;28;20049;-67
2023/10/08 09:15:32;;;;;;;2.15;1.00;;;;;;;7.04;65.59;94940.63;6292825;28;20515;-68
2023/10/08 09:18:39;;;;;;;2.15;0.70;;;;;;;7.03;65.61;94936.34;6293757;28;20037;-70
2023/10/08 09:21:59;;;;;;;0.98;0.80;;;;;;;6.74;67.38;94942.97;6292819;28;20068;-68
2023/10/08 09:25:07;;;;;;;;;;;;;;;6.48;68.82;94957.28;6294113;28;20044;-66
2023/10/08 09:28:14;;;;;;;1.70;0.65;;;;;;;6.25;70.17;94957.31;6297839;28;19977;-67
2023/10/08 09:31:23;;;;;;;2.67;1.05;;;;;;;6.29;70.14;94923.97;6298735;28;20041;-68
2023/10/08 09:34:30;;;;;;;0.45;0.45;;;;;;;6.41;70.15;94940.44;6281083;28;20048;-68
2023/10/08 09:37:36;;;;;;;1.05;0.70;;;;;;;6.56;69.46;94910.47;6298662;28;20519;-68
2023/10/08 09:40:47;;;;;;;2.53;1.07;;;;;;;6.69;69.15;94929.44;6297618;28;20056;-67
2023/10/08 09:43:52;;;;;;;1.02;0.93;;;;;;;6.68;68.95;94899.06;6297741;28;20052;-68
2023/10/08 09:47:04;;;;;;;1.45;0.80;;;;;;;6.73;68.93;94930.03;6297425;28;20045;-68
2023/10/08 09:50:07;;;;;;;2.78;1.67;;;;;;;6.58;69.53;94915.59;6297496;28;20041;-68
2023/10/08 09:53:19;;;;;;;1.33;1.20;;;;;;;6.58;69.63;94895.50;6297979;28;20438;-67
2023/10/08 09:56:32;;;;;;;2.65;1.17;;;;;;;6.59;69.95;94901.56;6298168;28;20048;-68
2023/10/08 09:59:38;;;;;;;2.13;1.38;;;;;;;6.44;70.23;94898.41;6279600;28;20066;-68
2023/10/08 10:02:46;;;;;;;2.40;1.20;;;;;;;6.41;71.46;94894.25;6297927;28;20044;-68
2023/10/08 10:05:50;;;;;;;2.58;1.30;;;;;;;6.10;72.49;94890.63;6297112;28;20052;-67
2023/10/08 10:08:59;;;;;;;3.60;1.33;;;;;;;6.17;73.11;94886.59;6280107;28;20418;-69
2023/10/08 10:12:09;;;;;;;1.92;1.25;;;;;;;6.01;73.99;94907.03;6297100;28;20185;-68
2023/10/08 10:15:11;;;;;;;2.05;1.10;;;;;;;6.07;74.51;94885.66;6296989;28;20048;-69
2023/10/08 10:18:15;;;;;;;1.33;0.85;;;;;;;6.22;74.21;94876.59;6296543;28;20040;-68
2023/10/08 10:21:16;;;;;;;;;;;;;;;6.26;73.85;94885.84;6297438;28;20053;-68
2023/10/08 10:24:37;;;;;;;2.15;1.38;;;;;;;6.36;74.01;94867.66;6296897;28;20391;-68
2023/10/08 10:27:55;;;;;;;2.85;1.50;;;;;;;6.29;73.93;94901.28;6296329;28;20052;-69
2023/10/08 10:31:00;;;;;;;2.60;1.30;;;;;;;6.20;73.89;94870.69;6278636;28;20044;-68
2023/10/08 10:34:08;;;;;;;1.25;1.15;;;;;;;6.26;74.24;94864.97;6295226;28;20516;-69
2023/10/08 10:37:20;;;;;;;7.53;2.30;;;;;;;6.34;74.03;94863.50;6295806;28;20457;-68
2023/10/08 10:40:39;;;;;;;4.63;2.47;;;;;;;6.32;74.13;94847.97;6294588;28;20055;-68
2023/10/08 10:43:52;;;;;;;4.88;2.65;;;;;;;6.27;74.79;94830.06;6295163;28;20071;-68
2023/10/08 10:50:31;;;;;;;6.50;2.42;;;;;;;6.38;74.35;94805.69;6296146;28;20041;-69
2023/10/08 10:57:15;;;;;;;2.40;1.75;;;;;;;6.60;73.23;94822.22;6271650;28;20488;-68
2023/10/08 11:03:34;;;;;;;4.22;2.08;;;;;;;6.70;72.73;94804.81;6271055;28;20047;-68
2023/10/08 11:06:37;;;;;;;14.50;4.68;;;;;;;6.55;73.33;94785.19;6270961;28;20048;-68
2023/10/08 11:09:47;;;;;;;7.22;3.00;;;;;;;6.49;74.00;94791.75;6253463;28;20516;-67
2023/10/08 11:12:54;;;;;;;10.05;3.60;;;;;;;6.50;74.17;94824.75;6270680;28;20055;-67
2023/10/08 11:15:59;;;;;;;5.97;2.90;;;;;;;6.43;74.29;94823.59;6271616;28;20041;-67
2023/10/08 11:19:08;;;;;;;1.95;1.30;;;;;;;6.57;74.38;94841.59;6271508;28;20045;-67
2023/10/08 11:22:16;;;;;;;3.05;1.77;;;;;;;6.55;74.71;94843.50;6270367;28;20071;-67
2023/10/08 11:25:27;;;;;;;2.60;1.67;;;;;;;6.49;75.36;94816.09;6271242;28;20047;-68
2023/10/08 11:28:29;;;;;;;1.60;1.10;;;;;;;6.52;75.99;94830.69;6270460;28;20049;-67
2023/10/08 11:31:39;;;;;;;2.80;2.03;;;;;;;6.40;76.38;94829.91;6271308;28;20037;-67
2023/10/08 11:34:50;;;;;;;5.65;2.75;;;;;;;6.52;76.84;94828.06;6270956;28;20052;-67
2023/10/08 11:38:01;;;;;;;3.25;2.03;;;;;;;6.68;76.57;94838.94;6270868;28;20049;-68
2023/10/08 11:41:20;;;;;;;2.95;1.55;;;;;;;6.88;76.21;94829.47;6270346;28;20142;-67
2023/10/08 11:44:30;;;;;;;2.22;1.15;;;;;;;6.96;75.63;94831.41;6269456;28;20045;-68
2023/10/08 11:47:35;;;;;;;0.80;0.75;;;;;;;7.07;74.87;94823.50;6269562;28;20405;-67
2023/10/08 11:50:40;;;;;;;0.70;0.60;;;;;;;7.12;75.25;94842.25;6270025;28;20045;-67
2023/10/08 11:53:44;;;;;;;0.93;0.60;;;;;;;7.14;75.68;94824.66;6295203;28;20045;-67
2023/10/08 11:56:49;;;;;;;1.80;0.68;;;;;;;7.10;75.53;94818.00;6294561;28;20052;-67
2023/10/08 11:59:54;;;;;;;0.82;0.68;;;;;;;7.11;75.33;94817.06;6295363;28;20045;-67
2023/10/08 12:02:55;;;;;;;1.85;0.60;;;;;;;7.27;75.42;94807.91;6294495;28;20197;-67
2023/10/08 12:05:59;;;;;;;1.65;1.20;;;;;;;7.35;75.13;94815.94;6294832;28;20535;-67
2023/10/08 12:09:11;;;;;;;3.95;1.85;;;;;;;7.44;74.95;94804.69;6295034;28;20040;-68
2023/10/08 12:12:18;;;;;;;3.58;1.63;;;;;;;7.44;75.15;94804.69;6294226;28;20044;-67
2023/10/08 12:15:34;;;;;;;1.02;0.68;;;;;;;7.50;75.07;94801.59;6293722;28;20063;-68
2023/10/08 12:18:43;;;;;;;4.13;0.88;;;;;;;7.46;75.23;94810.63;6293846;28;20052;-68
2023/10/08 12:21:48;;;;;;;2.60;1.27;;;;;;;7.57;74.51;94799.25;6294911;28;20048;-67
2023/10/08 12:24:53;;;;;;;1.85;0.77;;;;;;;7.56;74.85;94787.97;6294642;28;20032;-67
2023/10/08 12:27:57;;;;;;;1.90;0.80;;;;;;;7.72;74.75;94802.34;6294014;28;20155;-67
2023/10/08 12:31:06;;;;;;;1.23;0.85;;;;;;;7.62;74.54;94803.13;6294738;28;20491;-67
2023/10/08 12:34:11;;;;;;;1.55;0.60;;;;;;;7.73;74.37;94810.06;6293415;28;20063;-67
2023/10/08 12:37:14;;;;;;;1.33;0.85;;;;;;;7.62;74.30;94797.91;6294446;28;20146;-67
2023/10/08 12:40:33;;;;;;;0.77;0.50;;;;;;;7.75;74.30;94796.81;6276216;28;20048;-67
2023/10/08 12:43:38;;;;;;;0.95;0.40;;;;;;;7.67;74.67;94804.50;6293613;28;20082;-67
2023/10/08 12:46:43;;;;;;;0.95;0.57;;;;;;;7.82;74.30;94792.72;6293779;28;20521;-68
2023/10/08 12:49:46;;;;;;;1.10;0.60;;;;;;;7.82;74.37;94783.06;6293285;28;20427;-66
2023/10/08 12:52:55;;;;;;;0.95;0.80;;;;;;;7.87;73.91;94795.78;6293868;28;20053;-68
2023/10/08 12:55:58;;;;;;;3.65;0.90;;;;;;;7.83;74.19;94794.38;6293506;28;20040;-68
2023/10/08 12:59:07;;;;;;;0.63;0.60;;;;;;;7.92;74.19;94804.03;6294070;28;20426;-68
2023/10/08 13:02:16;;;;;;;0.90;0.50;;;;;;;7.95;74.06;94780.19;6293341;28;20044;-66
2023/10/08 13:05:27;;;;;;;2.15;1.98;;;;;;;7.87;74.11;94793.97;6294136;28;20052;-68
2023/10/08 13:08:35;;;;;;;2.80;1.40;;;;;;;7.86;74.55;94794.09;6293315;28;20526;-68
2023/10/08 13:11:39;;;;;;;1.27;0.70;;;;;;;8.00;74.21;94825.16;6292905;28;20067;-67
2023/10/08 13:14:44;;;;;;;0.40;0.40;;;;;;;7.98;74.15;94807.91;6292926;28;20057;-67
2023/10/08 13:17:52;;;;;;;2.17;0.90;;;;;;;7.68;74.97;94769.53;6294112;28;20048;-67
2023/10/08 13:20:53;;;;;;;1.27;0.80;;;;;;;7.97;74.58;94775.66;6292978;28;20049;-67
2023/10/08 13:24:02;;;;;;;2.50;1.15;;;;;;;7.84;74.96;94788.16;6293163;28;20049;-67
2023/10/08 13:27:06;;;;;;;3.42;1.52;;;;;;;7.91;75.03;94789.31;6293420;28;20056;-67
2023/10/08 13:30:08;;;;;;;1.92;0.80;;;;;;;8.08;74.69;94791.25;6293300;28;20098;-67
2023/10/08 13:33:10;;;;;;;2.30;1.30;;;;;;;8.05;74.71;94803.81;6293377;28;20048;-67
2023/10/08 13:36:14;;;;;;;3.58;1.30;;;;;;;7.94;74.98;94781.16;6293382;28;20048;-67
2023/10/08 13:39:18;;;;;;;2.97;1.40;;;;;;;8.00;75.07;94798.97;6292770;28;20041;-67
2023/10/08 13:42:20;;;;;;;1.95;0.95;;;;;;;7.93;75.51;94766.44;6292442;28;20055;-67
2023/10/08 13:45:26;;;;;;;0.40;0.40;;;;;;;8.08;75.59;94778.16;6292687;28;20143;-68
2023/10/08 13:48:27;;;;;;;1.45;0.80;;;;;;;7.93;75.78;94758.56;6292937;28;20044;-67
2023/10/08 13:51:28;;;;;;;0.43;0.43;;;;;;;8.02;75.87;94773.47;6292669;28;20060;-67
2023/10/08 13:54:35;;;;;;;0.70;0.70;;;;;;;8.00;76.30;94791.09;6293037;28;20174;-67
2023/10/08 13:57:42;;;;;;;1.95;0.93;;;;;;;7.96;76.52;94789.72;6292626;28;20055;-67
2023/10/08 14:00:44;;;;;;;1.30;1.20;;;;;;;7.97;76.61;94794.00;6292710;28;20064;-67
2023/10/08 14:03:55;;;;;;;1.08;0.88;;;;;;;8.01;76.69;94797.16;6293843;28;20032;-67
2023/10/08 14:07:04;;;;;;;2.80;0.85;;;;;;;8.00;76.87;94804.19;6292288;28;20059;-67
2023/10/08 14:10:08;;;;;;;1.10;0.70;;;;;;;7.98;77.27;94810.53;6293198;28;20122;-68
2023/10/08 14:13:12;;;;;;;0.70;0.50;;;;;;;8.00;77.17;94793.72;6295006;28;20423;-67
2023/10/08 14:16:17;;;;;;;1.08;0.70;;;;;;;8.06;77.25;94803.66;6298020;28;20040;-66
2023/10/08 14:19:28;;;;;;;1.15;0.40;;;;;;;8.17;77.07;94796.66;6296770;28;20051;-67
2023/10/08 14:22:29;;;;;;;6.07;1.92;;;;;;;8.05;77.62;94809.88;6297517;28;20036;-66
2023/10/08 14:25:33;;;;;;;2.92;1.58;;;;;;;8.04;77.77;94803.00;6297558;28;20039;-66
2023/10/08 14:29:00;;;;;;;1.30;0.98;;;;;;;8.07;77.94;94807.94;6297264;28;20131;-66
2023/10/08 14:32:08;;;;;;;0.98;0.80;;;;;;;8.05;77.97;94803.81;6297238;28;20040;-66
2023/10/08 14:45:13;;;;;;;4.75;2.10;;;;;;;7.94;79.26;94811.78;6278832;28;20044;-67
2023/10/08 14:48:16;;;;;;;4.72;2.15;;;;;;;7.93;79.62;94813.56;6295871;28;20040;-68
2023/10/08 14:51:19;;;;;;;1.52;1.13;;;;;;;7.84;80.21;94807.34;6296328;28;20045;-68
2023/10/08 14:54:25;;;;;;;1.60;1.30;;;;;;;7.79;80.37;94803.47;6296061;28;20075;-68
2023/10/08 14:57:26;;;;;;;1.25;0.95;;;;;;;7.81;80.68;94804.16;6278487;28;20139;-68
2023/10/08 15:00:35;;;;;;;2.67;1.70;;;;;;;7.83;81.09;94820.56;6295608;28;20051;-67
2023/10/08 15:03:37;;;;;;;2.22;1.40;;;;;;;7.88;80.98;94810.53;6295845;28;20076;-67
2023/10/08 15:06:39;;;;;;;1.98;1.10;;;;;;;7.78;81.10;94807.03;6295867;28;20048;-68
2023/10/08 15:09:49;;;;;;;1.00;0.90;;;;;;;7.73;81.52;94822.31;6296284;28;20414;-68
2023/10/08 15:12:58;;;;;;;1.45;0.98;;;;;;;7.87;81.70;94837.69;6295554;28;20127;-67
2023/10/08 15:16:04;;;;;;;2.08;1.52;;;;;;;7.86;81.77;94821.13;6296135;28;20044;-68
2023/10/08 15:19:11;;;;;;;2.90;1.38;;;;;;;7.85;81.88;94834.34;6295479;28;20048;-67
2023/10/08 15:22:13;;;;;;;1.77;0.93;;;;;;;7.85;81.67;94834.34;6277896;28;20055;-69
2023/10/08 15:25:23;;;;;;;0.90;0.90;;;;;;;7.87;82.10;94842.91;6295500;28;20125;-69
2023/10/08 15:28:26;;;;;;;2.13;0.77;;;;;;;7.92;81.99;94851.19;6295173;28;20045;-68
2023/10/08 15:31:30;;;;;;;0.50;0.50;;;;;;;7.95;82.08;94837.81;6295302;28;20213;-67
2023/10/08 15:34:37;;;;;;;0.82;0.77;;;;;;;7.88;82.23;94849.78;6295407;28;20091;-69
2023/10/08 15:37:40;;;;;;;0.60;0.50;;;;;;;7.86;82.39;94857.78;6295493;28;20033;-68
2023/10/08 15:40:49;;;;;;;3.10;1.42;;;;;;;7.73;82.56;94869.41;6295776;28;20496;-68
2023/10/08 15:43:51;;;;;;;1.23;0.93;;;;;;;7.76;82.70;94858.72;6295496;28;20043;-66
2023/10/08 15:46:55;;;;;;;1.95;1.00;;;;;;;7.77;82.64;94842.03;6295730;28;20044;-67
2023/10/08 15:50:00;;;;;;;1.48;0.88;;;;;;;7.71;82.50;94848.63;6295438;28;20127;-66